Time;durP1;ratioP1;P1;durP2;ratioP2;P2;SDS_P1;SDS_P2;PMS_P1;PMS_P2;Temp;Humidity;BMP_temperature;BMP_pressure;BME280_temperature;BME280_humidity;BME280_pressure;Samples;Min_cycle;Max_cycle;Signal;HPM_P1;HPM_P2
2021/04/30 00:00:15;;;;;;;;;;;;;;;17.57;65.87;100707.63;4995438;28;1058;-54
2021/04/30 00:02:41;;;;;;;;;;;;;;;17.56;66.18;100704.06;4994356;28;1519;-55
2021/04/30 00:05:08;;;;;;;;;;;;;;;17.53;66.02;100707.03;4995247;28;1024;-55
2021/04/30 00:07:36;;;;;;;;;;;;;;;17.56;66.18;100716.59;4995206;28;1032;-55
2021/04/30 00:10:02;;;;;;;;;;;;;;;17.56;65.63;100727.28;4995620;28;1856;-55
2021/04/30 00:12:28;;;;;;;;;;;;;;;17.57;65.87;100739.72;4977273;28;1914;-55
2021/04/30 00:14:54;;;;;;;;;;;;;;;17.57;66.00;100729.00;4975706;28;1049;-54
2021/04/30 00:17:20;;;;;;;;;;;;;;;17.58;65.97;100744.06;4975982;28;981;-55
2021/04/30 00:19:46;;;;;;;;;;;;;;;17.56;66.22;100738.00;4976993;28;1013;-55
2021/04/30 00:22:12;;;;;;;;;;;;;;;17.56;66.11;100738.84;4979600;28;1096;-55
2021/04/30 00:24:39;;;;;;;;;;;;;;;17.55;65.82;100730.94;4979842;28;1062;-55
2021/04/30 00:27:05;;;;;;;;;;;;;;;17.55;65.89;100728.25;4979802;28;975;-55
2021/04/30 00:29:31;;;;;;;;;;;;;;;17.55;65.30;100725.59;4979780;28;972;-55
2021/04/30 00:31:57;;;;;;;;;;;;;;;17.53;65.62;100711.50;4979414;28;1020;-54
2021/04/30 00:34:24;;;;;;;;;;;;;;;17.55;65.78;100720.25;4979279;28;1964;-55
2021/04/30 00:36:50;;;;;;;;;;;;;;;17.55;65.91;100731.81;4979659;28;1062;-55
2021/04/30 00:39:16;;;;;;;;;;;;;;;17.54;65.91;100734.59;4979521;28;935;-55
2021/04/30 00:41:43;;;;;;;;;;;;;;;17.53;66.03;100748.94;4979315;28;1304;-54
2021/04/30 00:44:10;;;;;;;;;;;;;;;17.52;65.54;100745.41;4979213;28;1037;-55
2021/04/30 00:46:36;;;;;;;;;;;;;;;17.55;66.13;100746.97;4979093;28;1103;-55
2021/04/30 00:49:03;;;;;;;;;;;;;;;17.56;65.59;100759.38;4979131;28;1048;-55
2021/04/30 00:51:29;;;;;;;;;;;;;;;17.53;65.79;100741.78;4979026;28;1028;-55
2021/04/30 00:53:55;;;;;;;;;;;;;;;17.56;65.23;100746.00;4979009;28;1910;-55
2021/04/30 00:56:22;;;;;;;;;;;;;;;17.52;65.18;100741.91;4979302;28;992;-55
2021/04/30 00:58:49;;;;;;;;;;;;;;;17.49;65.47;100725.13;4979202;28;984;-55
2021/04/30 01:01:15;;;;;;;;;;;;;;;17.49;66.14;100735.81;4979134;28;1469;-55
2021/04/30 01:03:42;;;;;;;;;;;;;;;17.51;66.08;100751.75;4979169;28;1070;-55
2021/04/30 01:06:08;;;;;;;;;;;;;;;17.50;66.25;100745.53;4979128;28;1044;-55
2021/04/30 01:08:34;;;;;;;;;;;;;;;17.50;66.10;100739.34;4978756;28;1082;-55
2021/04/30 01:11:00;;;;;;;;;;;;;;;17.49;65.59;100735.00;4978566;28;1289;-55
2021/04/30 01:13:26;;;;;;;;;;;;;;;17.49;65.57;100737.66;4978872;28;1989;-55
2021/04/30 01:15:53;;;;;;;;;;;;;;;17.49;66.07;100737.66;4978929;28;1019;-55
2021/04/30 01:18:19;;;;;;;;;;;;;;;17.47;66.00;100735.09;4978571;28;1045;-54
2021/04/30 01:20:45;;;;;;;;;;;;;;;17.49;65.55;100721.63;4978972;28;1024;-55
2021/04/30 01:23:12;;;;;;;;;;;;;;;17.45;65.99;100718.34;4978494;28;1060;-55
2021/04/30 01:25:38;;;;;;;;;;;;;;;17.45;66.06;100704.97;4978511;28;1052;-55
2021/04/30 01:28:05;;;;;;;;;;;;;;;17.47;65.26;100713.72;4978655;28;989;-55
2021/04/30 01:30:32;;;;;;;;;;;;;;;17.47;66.14;100705.69;4978351;28;1055;-55
2021/04/30 01:32:58;;;;;;;;;;;;;;;17.48;65.58;100720.75;4977628;28;1975;-55
2021/04/30 01:35:26;;;;;;;;;;;;;;;17.49;65.69;100733.16;4978290;28;1041;-55
2021/04/30 01:37:53;;;;;;;;;;;;;;;17.49;65.75;100727.81;4978560;28;979;-55
2021/04/30 01:40:21;;;;;;;;;;;;;;;17.50;65.12;100729.50;4978535;28;972;-54
2021/04/30 01:42:57;;;;;;;;;;;;;;;17.49;65.39;100732.31;4978449;28;1049;-55
2021/04/30 01:45:24;;;;;;;;;;;;;;;17.48;65.82;100738.63;4978107;28;1088;-55
2021/04/30 01:47:50;;;;;;;;;;;;;;;17.46;65.51;100722.69;4978338;28;976;-55
2021/04/30 01:50:16;;;;;;;;;;;;;;;17.47;65.15;100723.56;4978039;28;1053;-55
2021/04/30 01:52:42;;;;;;;;;;;;;;;17.47;66.01;100716.41;4978150;28;1906;-55
2021/04/30 01:55:08;;;;;;;;;;;;;;;17.46;65.96;100714.69;4977951;28;1879;-55
2021/04/30 01:57:36;;;;;;;;;;;;;;;17.48;65.86;100707.38;4978225;28;1018;-55
2021/04/30 02:02:46;;;;;;;;;;;;;;;17.46;65.48;100717.34;4340554;26;2755;-43
2021/04/30 02:05:12;;;;;;;;;;;;;;;17.46;65.18;100727.22;5015472;28;1100;-44
2021/04/30 02:07:39;;;;;;;;;;;;;;;17.48;65.74;100726.09;5015773;28;1079;-43
2021/04/30 02:12:39;;;;;;;;;;;;;;;17.47;65.40;100723.56;4975725;28;1958;-55
2021/04/30 02:15:08;;;;;;;;;;;;;;;17.43;65.83;100701.59;4977552;28;1130;-55
2021/04/30 02:17:34;;;;;;;;;;;;;;;17.45;65.81;100715.66;4977871;28;1004;-55
2021/04/30 02:20:00;;;;;;;;;;;;;;;17.42;65.78;100739.97;4977745;28;1028;-55
2021/04/30 02:22:27;;;;;;;;;;;;;;;17.41;65.76;100724.91;4977430;28;1111;-55
2021/04/30 02:24:53;;;;;;;;;;;;;;;17.42;65.33;100717.75;4977628;28;1015;-55
2021/04/30 02:27:19;;;;;;;;;;;;;;;17.41;65.81;100708.88;4977544;28;1004;-55
2021/04/30 02:29:46;;;;;;;;;;;;;;;17.40;65.87;100715.19;4977248;28;1074;-54
2021/04/30 02:32:12;;;;;;;;;;;;;;;17.41;65.61;100735.63;4977155;28;1079;-55
2021/04/30 02:34:38;;;;;;;;;;;;;;;17.41;65.19;100746.31;4977359;28;1968;-55
2021/04/30 02:37:03;;;;;;;;;;;;;;;17.41;65.40;100748.13;4977053;28;1063;-55
2021/04/30 02:39:29;;;;;;;;;;;;;;;17.41;65.03;100751.66;4977316;28;1034;-55
2021/04/30 02:41:55;;;;;;;;;;;;;;;17.44;64.80;100764.75;4977487;28;1215;-55
2021/04/30 02:44:21;;;;;;;;;;;;;;;17.40;65.06;100749.94;4977211;28;984;-55
2021/04/30 02:46:48;;;;;;;;;;;;;;;17.40;65.10;100765.97;4976691;28;1091;-55
2021/04/30 02:49:16;;;;;;;;;;;;;;;17.41;65.05;100765.03;4977234;28;1028;-55
2021/04/30 02:51:42;;;;;;;;;;;;;;;17.42;65.57;100758.69;4977247;28;1022;-55
2021/04/30 02:54:08;;;;;;;;;;;;;;;17.42;65.75;100782.75;4976655;28;1978;-55
2021/04/30 02:56:35;;;;;;;;;;;;;;;17.42;65.80;100758.69;4976978;28;972;-55
2021/04/30 02:59:03;;;;;;;;;;;;;;;17.44;65.08;100777.28;4976746;28;1012;-55
2021/04/30 03:01:30;;;;;;;;;;;;;;;17.41;65.41;100778.38;4970445;28;1413;-55
2021/04/30 03:03:56;;;;;;;;;;;;;;;17.41;65.22;100781.06;4957660;29;1066;-55
2021/04/30 03:06:22;;;;;;;;;;;;;;;17.41;65.24;100783.72;4957644;29;942;-55
2021/04/30 03:08:52;;;;;;;;;;;;;;;17.44;65.03;100791.47;4957313;29;1138;-55
2021/04/30 03:11:18;;;;;;;;;;;;;;;17.43;65.89;100800.50;4957050;29;1149;-55
2021/04/30 03:13:44;;;;;;;;;;;;;;;17.41;65.80;100805.13;4957074;29;1906;-55
2021/04/30 03:16:10;;;;;;;;;;;;;;;17.44;64.96;100809.34;4957486;29;1070;-55
2021/04/30 03:18:36;;;;;;;;;;;;;;;17.40;65.41;100798.06;4957090;29;1091;-55
2021/04/30 03:21:03;;;;;;;;;;;;;;;17.42;65.82;100800.63;4957393;29;998;-55
2021/04/30 03:23:29;;;;;;;;;;;;;;;17.41;65.83;100786.41;4957251;29;968;-55
2021/04/30 03:25:55;;;;;;;;;;;;;;;17.40;65.60;100783.84;4957287;29;1069;-55
2021/04/30 03:28:21;;;;;;;;;;;;;;;17.40;65.60;100789.19;4957220;29;1024;-55
2021/04/30 03:30:47;;;;;;;;;;;;;;;17.39;65.68;100800.84;4956999;29;983;-55
2021/04/30 03:33:13;;;;;;;;;;;;;;;17.40;65.03;100806.06;4956812;29;1983;-55
2021/04/30 03:35:39;;;;;;;;;;;;;;;17.40;65.81;100816.78;4957257;29;1070;-54
2021/04/30 03:38:06;;;;;;;;;;;;;;;17.39;64.98;100799.03;4956869;29;1119;-55
2021/04/30 03:40:32;;;;;;;;;;;;;;;17.38;64.94;100794.66;4957062;29;1054;-55
2021/04/30 03:42:58;;;;;;;;;;;;;;;17.38;65.61;100813.38;4956764;29;1032;-55
2021/04/30 03:45:24;;;;;;;;;;;;;;;17.37;65.23;100802.78;4957085;29;1015;-54
2021/04/30 03:47:50;;;;;;;;;;;;;;;17.37;65.26;100822.38;4956743;29;1131;-55
2021/04/30 03:50:16;;;;;;;;;;;;;;;17.38;65.68;100833.91;4957004;29;982;-54
2021/04/30 03:52:42;;;;;;;;;;;;;;;17.37;65.99;100822.38;4956838;29;1907;-55
2021/04/30 03:55:10;;;;;;;;;;;;;;;17.36;65.16;100818.00;4956201;28;1086;-55
2021/04/30 03:57:35;;;;;;;;;;;;;;;17.37;65.36;100818.84;4957177;29;1967;-55
2021/04/30 04:00:01;;;;;;;;;;;;;;;17.36;65.59;100818.00;4956529;29;1039;-55
2021/04/30 04:02:27;;;;;;;;;;;;;;;17.38;65.06;100821.38;4956535;28;1394;-55
2021/04/30 04:04:53;;;;;;;;;;;;;;;17.36;65.14;100809.97;4956743;29;1070;-55
2021/04/30 04:07:19;;;;;;;;;;;;;;;17.39;64.99;100832.91;4956861;29;1124;-55
2021/04/30 04:09:45;;;;;;;;;;;;;;;17.39;65.05;100828.44;4956580;29;1241;-55
2021/04/30 04:12:12;;;;;;;;;;;;;;;17.39;65.66;100838.28;4956432;29;1247;-55
2021/04/30 04:14:40;;;;;;;;;;;;;;;17.39;65.50;100844.50;4956704;29;1896;-55
2021/04/30 04:17:06;;;;;;;;;;;;;;;17.39;65.51;100844.50;4956693;29;1046;-55
2021/04/30 04:19:32;;;;;;;;;;;;;;;17.41;64.88;100833.69;4956465;29;1290;-55
2021/04/30 04:21:58;;;;;;;;;;;;;;;17.41;65.06;100841.69;4956719;29;983;-55
2021/04/30 04:24:24;;;;;;;;;;;;;;;17.42;64.98;100841.56;4956418;29;1048;-55
2021/04/30 04:26:50;;;;;;;;;;;;;;;17.40;64.75;100846.19;4956619;29;990;-54
2021/04/30 04:29:17;;;;;;;;;;;;;;;17.41;65.54;100847.06;4956320;29;1966;-55
2021/04/30 04:31:43;;;;;;;;;;;;;;;17.42;64.90;100860.25;4956285;29;1028;-55
2021/04/30 04:34:09;;;;;;;;;;;;;;;17.39;65.41;100859.66;4956511;29;1903;-55
2021/04/30 04:36:35;;;;;;;;;;;;;;;17.39;65.65;100863.19;4956252;29;1208;-55
2021/04/30 04:39:01;;;;;;;;;;;;;;;17.39;64.94;100855.19;4956607;29;1016;-54
2021/04/30 04:41:27;;;;;;;;;;;;;;;17.41;65.06;100853.25;4956132;29;1127;-55
2021/04/30 04:43:53;;;;;;;;;;;;;;;17.40;64.74;100856.03;4956386;29;1007;-55
2021/04/30 04:46:19;;;;;;;;;;;;;;;17.40;64.73;100864.88;4956484;29;1047;-55
2021/04/30 04:48:45;;;;;;;;;;;;;;;17.40;65.70;100866.72;4956141;29;1996;-55
2021/04/30 04:51:11;;;;;;;;;;;;;;;17.40;64.78;100878.25;4956449;29;1022;-55
2021/04/30 04:53:37;;;;;;;;;;;;;;;17.41;64.88;100882.66;4956340;29;1942;-55
2021/04/30 04:56:04;;;;;;;;;;;;;;;17.38;65.21;100874.00;4956092;29;1064;-55
2021/04/30 04:58:30;;;;;;;;;;;;;;;17.39;65.37;100881.91;4956414;29;1040;-55
2021/04/30 05:00:56;;;;;;;;;;;;;;;17.39;65.51;100876.56;4956177;28;1411;-55
2021/04/30 05:03:22;;;;;;;;;;;;;;;17.39;64.74;100868.56;4955933;29;1064;-55
2021/04/30 05:05:48;;;;;;;;;;;;;;;17.41;65.50;100873.78;4956390;28;1885;-55
2021/04/30 05:08:14;;;;;;;;;;;;;;;17.37;65.66;100883.00;4959331;29;1221;-55
2021/04/30 05:10:40;;;;;;;;;;;;;;;17.40;64.88;100904.97;4959285;28;1141;-54
2021/04/30 05:13:06;;;;;;;;;;;;;;;17.37;65.11;100899.03;4959312;29;1908;-55
2021/04/30 05:15:32;;;;;;;;;;;;;;;17.36;64.89;100895.50;4959709;29;1074;-54
2021/04/30 05:17:58;;;;;;;;;;;;;;;17.38;64.87;100912.28;4959256;29;1120;-54
2021/04/30 05:20:25;;;;;;;;;;;;;;;17.38;65.35;100917.63;4959232;29;916;-55
2021/04/30 05:22:51;;;;;;;;;;;;;;;17.42;65.37;100916.41;4959553;29;1047;-54
2021/04/30 05:25:17;;;;;;;;;;;;;;;17.40;65.07;100898.78;4959487;29;1056;-55
2021/04/30 05:27:43;;;;;;;;;;;;;;;17.39;65.46;100905.97;4959382;29;1070;-54
2021/04/30 05:30:10;;;;;;;;;;;;;;;17.41;65.57;100914.72;4959063;29;1119;-54
2021/04/30 05:32:36;;;;;;;;;;;;;;;17.40;65.61;100902.31;4959297;29;1907;-54
2021/04/30 05:35:03;;;;;;;;;;;;;;;17.44;65.02;100917.13;4959048;29;1123;-55
2021/04/30 05:37:31;;;;;;;;;;;;;;;17.40;64.89;100915.69;4959258;29;1054;-55
2021/04/30 05:39:57;;;;;;;;;;;;;;;17.41;65.42;100914.72;4959230;29;1000;-55
2021/04/30 05:42:24;;;;;;;;;;;;;;;17.41;65.12;100919.22;4959578;29;1875;-55
2021/04/30 05:44:49;;;;;;;;;;;;;;;17.41;65.49;100930.75;4958883;29;1115;-55
2021/04/30 05:47:15;;;;;;;;;;;;;;;17.40;65.67;100920.19;4959118;29;987;-55
2021/04/30 05:49:41;;;;;;;;;;;;;;;17.41;65.53;100933.44;4959059;29;979;-54
2021/04/30 05:52:07;;;;;;;;;;;;;;;17.42;65.12;100928.94;4958801;29;1055;-55
2021/04/30 05:54:34;;;;;;;;;;;;;;;17.41;65.39;100928.09;4958874;29;1906;-55
2021/04/30 05:57:00;;;;;;;;;;;;;;;17.44;64.74;100927.81;4958887;29;979;-55
2021/04/30 05:59:26;;;;;;;;;;;;;;;17.42;65.17;100929.78;4958567;29;1056;-55
2021/04/30 06:01:52;;;;;;;;;;;;;;;17.40;65.67;100939.75;4958765;28;1420;-55
2021/04/30 06:04:18;;;;;;;;;;;;;;;17.39;65.36;100930.03;4959015;29;1902;-55
2021/04/30 06:06:49;;;;;;;;;;;;;;;17.41;65.10;100938.78;4958753;29;1078;-55
2021/04/30 06:09:16;;;;;;;;;;;;;;;17.45;65.10;100931.38;4958717;29;1065;-55
2021/04/30 06:11:42;;;;;;;;;;;;;;;17.42;65.21;100931.59;4958182;29;1254;-54
2021/04/30 06:14:08;;;;;;;;;;;;;;;17.41;65.17;100940.63;4958526;29;1987;-55
2021/04/30 06:16:34;;;;;;;;;;;;;;;17.40;64.80;100937.06;4958287;29;1044;-55
2021/04/30 06:19:02;;;;;;;;;;;;;;;17.41;65.61;100938.78;4958126;28;1015;-55
2021/04/30 06:21:28;;;;;;;;;;;;;;;17.41;65.49;100937.94;4958419;29;983;-55
2021/04/30 06:23:54;;;;;;;;;;;;;;;17.41;64.80;100954.81;4958012;29;1123;-55
2021/04/30 06:26:20;;;;;;;;;;;;;;;17.41;64.74;100949.47;4958389;29;976;-54
2021/04/30 06:28:47;;;;;;;;;;;;;;;17.41;64.96;100956.66;4958309;29;1069;-55
2021/04/30 06:31:13;;;;;;;;;;;;;;;17.42;65.63;100955.66;4958361;29;1043;-55
2021/04/30 06:33:39;;;;;;;;;;;;;;;17.41;64.83;100960.16;4958217;29;1978;-55
2021/04/30 06:36:05;;;;;;;;;;;;;;;17.42;65.11;100963.69;4958083;29;994;-55
2021/04/30 06:38:31;;;;;;;;;;;;;;;17.40;64.60;100955.78;4958187;29;939;-55
2021/04/30 06:40:57;;;;;;;;;;;;;;;17.41;65.73;100960.16;4958035;29;1063;-55
2021/04/30 06:43:23;;;;;;;;;;;;;;;17.43;65.67;100958.22;4958036;29;969;-55
2021/04/30 06:45:50;;;;;;;;;;;;;;;17.43;64.98;100963.56;4957714;29;1099;-55
2021/04/30 06:48:16;;;;;;;;;;;;;;;17.44;65.51;100946.53;4957638;29;1052;-55
2021/04/30 06:50:42;;;;;;;;;;;;;;;17.45;65.66;100950.09;4957830;29;1074;-54
2021/04/30 06:53:08;;;;;;;;;;;;;;;17.45;65.57;100950.94;4957731;29;1976;-55
2021/04/30 06:55:34;;;;;;;;;;;;;;;17.43;64.68;100952.88;4957604;29;912;-55
2021/04/30 06:58:00;;;;;;;;;;;;;;;17.45;65.18;100950.94;4957822;29;1061;-54
2021/04/30 07:00:26;;;;;;;;;;;;;;;17.47;64.78;100964.19;4957372;29;1048;-55
2021/04/30 07:02:53;;;;;;;;;;;;;;;17.45;64.66;100963.47;4957429;28;1998;-55
2021/04/30 07:05:19;;;;;;;;;;;;;;;17.45;65.30;100972.31;4957538;29;1448;-54
2021/04/30 07:07:45;;;;;;;;;;;;;;;17.45;65.37;100966.13;4957602;29;1062;-55
2021/04/30 07:10:11;;;;;;;;;;;;;;;17.45;65.53;100966.13;4957212;29;1037;-54
2021/04/30 07:12:38;;;;;;;;;;;;;;;17.44;64.74;100954.56;4957064;29;1105;-55
2021/04/30 07:15:05;;;;;;;;;;;;;;;17.46;64.88;100975.84;4957159;29;1902;-54
2021/04/30 07:17:31;;;;;;;;;;;;;;;17.47;64.62;100967.72;4957130;29;1099;-55
2021/04/30 07:19:57;;;;;;;;;;;;;;;17.46;64.62;100967.81;4957461;29;1027;-55
2021/04/30 07:22:23;;;;;;;;;;;;;;;17.45;65.68;100966.97;4957379;29;979;-56
2021/04/30 07:24:49;;;;;;;;;;;;;;;17.46;65.74;100971.34;4957332;29;1042;-55
2021/04/30 07:27:17;;;;;;;;;;;;;;;17.45;65.30;100966.13;4967958;28;1452;-55
2021/04/30 07:29:43;;;;;;;;;;;;;;;17.47;65.49;100981.06;4975592;28;1021;-55
2021/04/30 07:32:09;;;;;;;;;;;;;;;17.46;64.79;100960.63;4976201;28;1039;-55
2021/04/30 07:34:35;;;;;;;;;;;;;;;17.43;65.69;100958.22;4975584;28;1906;-55
2021/04/30 07:37:02;;;;;;;;;;;;;;;17.47;64.69;100959.69;4976344;28;983;-54
2021/04/30 07:39:28;;;;;;;;;;;;;;;17.47;64.95;100965.03;4976335;28;1042;-55
2021/04/30 07:41:54;;;;;;;;;;;;;;;17.48;65.02;100974.75;4976001;28;1039;-54
2021/04/30 07:44:20;;;;;;;;;;;;;;;17.44;64.84;100967.94;4974805;28;1134;-55
2021/04/30 07:46:46;;;;;;;;;;;;;;;17.46;65.39;100970.50;4975833;28;1015;-55
2021/04/30 07:49:12;;;;;;;;;;;;;;;17.44;65.73;100967.94;4976321;28;988;-55
2021/04/30 07:51:38;;;;;;;;;;;;;;;17.46;65.35;100976.69;4976313;28;1023;-54
2021/04/30 07:54:06;;;;;;;;;;;;;;;17.45;65.07;100975.00;4976127;28;1993;-55
2021/04/30 07:56:32;;;;;;;;;;;;;;;17.46;64.89;100971.34;4976238;28;1050;-55
2021/04/30 07:58:58;;;;;;;;;;;;;;;17.48;65.20;100971.22;4976245;28;1043;-55
2021/04/30 08:01:24;;;;;;;;;;;;;;;17.47;65.66;100965.03;4976086;28;1401;-55
2021/04/30 08:03:50;;;;;;;;;;;;;;;17.51;64.58;100971.00;4976154;28;1053;-56
2021/04/30 08:06:16;;;;;;;;;;;;;;;17.49;64.74;100970.25;4975668;28;1028;-55
2021/04/30 08:08:42;;;;;;;;;;;;;;;17.50;64.81;100975.47;4975853;28;1044;-55
2021/04/30 08:11:09;;;;;;;;;;;;;;;17.52;64.55;100966.50;4975753;28;1063;-55
2021/04/30 08:13:35;;;;;;;;;;;;;;;17.53;65.38;100952.13;4975941;28;1910;-55
2021/04/30 08:16:01;;;;;;;;;;;;;;;17.51;65.50;100949.59;4975956;28;1039;-54
2021/04/30 08:18:27;;;;;;;;;;;;;;;17.54;64.92;100953.84;4975972;28;1099;-55
2021/04/30 08:20:53;;;;;;;;;;;;;;;17.54;65.23;100961.88;4975960;28;1059;-55
2021/04/30 08:23:19;;;;;;;;;;;;;;;17.52;65.38;100955.78;4975703;28;1051;-55
2021/04/30 08:25:45;;;;;;;;;;;;;;;17.53;65.28;100957.47;4976001;28;1082;-55
2021/04/30 08:28:12;;;;;;;;;;;;;;;17.53;65.20;100961.03;4975691;28;1063;-54
2021/04/30 08:30:38;;;;;;;;;;;;;;;17.53;65.47;100958.34;4975611;28;1056;-55
2021/04/30 08:33:04;;;;;;;;;;;;;;;17.53;65.11;100936.97;4975766;28;1975;-55
2021/04/30 08:35:30;;;;;;;;;;;;;;;17.53;64.84;100920.91;4975500;28;1114;-54
2021/04/30 08:37:56;;;;;;;;;;;;;;;17.55;64.74;100923.44;4975905;28;1869;-55
2021/04/30 08:40:22;;;;;;;;;;;;;;;17.58;64.49;100936.59;4976503;28;1095;-55
2021/04/30 08:42:50;;;;;;;;;;;;;;;17.58;65.24;100949.97;4979582;28;1008;-55
2021/04/30 08:45:17;;;;;;;;;;;;;;;17.60;64.27;100948.84;4979277;28;1289;-55
2021/04/30 08:47:44;;;;;;;;;;;;;;;17.60;65.02;100942.66;4979478;28;987;-55
2021/04/30 08:50:11;;;;;;;;;;;;;;;17.61;64.62;100939.03;4979531;28;999;-55
2021/04/30 08:52:37;;;;;;;;;;;;;;;17.63;64.97;100948.63;4979444;28;1069;-55
2021/04/30 08:55:07;;;;;;;;;;;;;;;17.60;64.22;100942.66;4978873;28;1906;-55
2021/04/30 08:57:35;;;;;;;;;;;;;;;17.63;64.34;100929.06;4979314;28;1082;-56
2021/04/30 09:00:01;;;;;;;;;;;;;;;17.65;64.97;100937.81;4979319;28;1091;-56
2021/04/30 09:02:30;;;;;;;;;;;;;;;17.65;65.08;100935.97;4979139;28;1459;-55
2021/04/30 09:04:56;;;;;;;;;;;;;;;17.66;64.65;100944.84;4979201;28;1043;-55
2021/04/30 09:07:25;;;;;;;;;;;;;;;17.68;64.17;100942.91;4978793;28;1037;-55
2021/04/30 09:10:02;;;;;;;;;;;;;;;17.64;64.85;100934.25;4979058;28;979;-55
2021/04/30 09:12:28;;;;;;;;;;;;;;;17.65;63.90;100944.00;4978555;28;1254;-55
2021/04/30 09:14:54;;;;;;;;;;;;;;;17.66;64.61;100944.84;4978998;28;1984;-55
2021/04/30 09:17:20;;;;;;;;;;;;;;;17.66;64.65;100939.50;4978916;28;1111;-56
2021/04/30 09:19:50;;;;;;;;;;;;;;;17.69;64.42;100931.25;4978950;28;1144;-55
2021/04/30 09:22:17;;;;;;;;;;;;;;;17.68;64.74;100926.84;4978919;28;1051;-54
2021/04/30 09:24:49;;;;;;;;;;;;;;;17.68;64.41;100919.66;4978884;28;978;-55
2021/04/30 09:27:27;;;;;;;;;;;;;;;17.68;64.69;100922.34;4979271;28;1590;-55
2021/04/30 09:29:53;;;;;;;;;;;;;;;17.70;64.57;100932.94;4978733;28;1070;-55
2021/04/30 09:32:19;;;;;;;;;;;;;;;17.70;64.31;100924.91;4978735;28;1059;-55
2021/04/30 09:34:45;;;;;;;;;;;;;;;17.68;64.96;100913.47;4978280;28;1974;-55
2021/04/30 09:37:13;;;;;;;;;;;;;;;17.70;64.95;100930.25;4978880;28;1066;-55
2021/04/30 09:39:50;;;;;;;;;;;;;;;17.70;64.90;100928.41;4978633;28;1084;-55
2021/04/30 09:42:17;;;;;;;;;;;;;;;17.69;64.65;100933.91;4978422;28;1995;-55
2021/04/30 09:44:44;;;;;;;;;;;;;;;17.69;64.39;100925.91;4978533;28;1034;-55
2021/04/30 09:47:25;;;;;;;;;;;;;;;17.69;64.47;100920.53;4978348;28;1038;-54
2021/04/30 09:49:51;;;;;;;;;;;;;;;17.70;64.36;100911.53;4975014;28;1430;-55
2021/04/30 09:52:19;;;;;;;;;;;;;;;17.72;63.90;100908.75;4977649;28;1071;-55
2021/04/30 09:54:45;;;;;;;;;;;;;;;17.72;64.41;100898.03;4978151;28;1981;-54
2021/04/30 09:57:12;;;;;;;;;;;;;;;17.71;64.54;100897.19;4978141;28;1015;-55
2021/04/30 09:59:39;;;;;;;;;;;;;;;17.72;64.68;100892.69;4978387;28;1027;-55
2021/04/30 10:02:06;;;;;;;;;;;;;;;17.70;64.28;100893.66;4977789;28;1369;-55
2021/04/30 10:04:34;;;;;;;;;;;;;;;17.72;64.96;100882.00;4978051;28;2001;-55
2021/04/30 10:07:00;;;;;;;;;;;;;;;17.73;64.04;100884.56;4978028;28;1059;-55
2021/04/30 10:09:28;;;;;;;;;;;;;;;17.72;64.30;100866.78;4978005;28;970;-55
2021/04/30 10:11:54;;;;;;;;;;;;;;;17.72;64.92;100888.19;4977637;28;1112;-55
2021/04/30 10:14:20;;;;;;;;;;;;;;;17.72;64.03;100877.50;4977944;28;1907;-55
2021/04/30 10:16:46;;;;;;;;;;;;;;;17.72;64.52;100882.84;4977640;28;1114;-55
2021/04/30 10:19:12;;;;;;;;;;;;;;;17.75;64.86;100884.44;4977797;28;975;-55
2021/04/30 10:21:40;;;;;;;;;;;;;;;17.72;64.80;100869.47;4977706;28;991;-55
2021/04/30 10:24:08;;;;;;;;;;;;;;;17.72;64.26;100877.50;4977344;28;1262;-55
2021/04/30 10:26:35;;;;;;;;;;;;;;;17.72;64.95;100865.94;4977414;28;928;-55
2021/04/30 10:29:02;;;;;;;;;;;;;;;17.72;64.92;100864.13;4977914;28;1063;-55
2021/04/30 10:31:30;;;;;;;;;;;;;;;17.74;64.76;100859.50;4977336;28;1969;-55
2021/04/30 10:33:59;;;;;;;;;;;;;;;17.73;64.56;100856.97;4977237;28;1906;-55
2021/04/30 10:36:29;;;;;;;;;;;;;;;17.74;64.37;100853.31;4977198;28;1052;-55
2021/04/30 10:38:56;;;;;;;;;;;;;;;17.73;64.46;100863.16;4977157;28;1029;-55
2021/04/30 10:41:29;;;;;;;;;;;;;;;17.74;64.86;100856.81;4977508;28;1986;-55
2021/04/30 10:44:12;;;;;;;;;;;;;;;17.74;64.45;100859.50;4977100;28;1057;-55
2021/04/30 10:46:38;;;;;;;;;;;;;;;17.74;64.74;100861.31;4977054;28;1095;-55
2021/04/30 10:49:19;;;;;;;;;;;;;;;17.74;64.51;100864.00;4977216;28;987;-55
2021/04/30 10:52:00;;;;;;;;;;;;;;;17.75;64.59;100849.66;4977221;28;979;-55
2021/04/30 10:54:26;;;;;;;;;;;;;;;17.79;64.39;100859.13;4975881;28;2030;-55
2021/04/30 10:56:59;;;;;;;;;;;;;;;17.77;64.81;100848.56;4977153;28;1071;-55
2021/04/30 10:59:26;;;;;;;;;;;;;;;17.77;64.19;100856.59;4976688;28;1091;-55
2021/04/30 11:01:56;;;;;;;;;;;;;;;17.75;64.69;100847.00;4976637;28;1469;-55
2021/04/30 11:04:22;;;;;;;;;;;;;;;17.78;65.05;100849.41;4975699;28;1076;-55
2021/04/30 11:06:51;;;;;;;;;;;;;;;17.79;64.44;100849.28;4976634;28;1163;-55
2021/04/30 11:09:20;;;;;;;;;;;;;;;17.78;64.48;100842.22;4976925;28;984;-54
2021/04/30 11:11:47;;;;;;;;;;;;;;;17.80;64.54;100847.44;4976494;28;1343;-55
2021/04/30 11:14:30;;;;;;;;;;;;;;;17.79;64.62;100845.75;4976478;28;1902;-55
2021/04/30 11:16:58;;;;;;;;;;;;;;;17.77;64.70;100845.88;4976757;28;1059;-54
2021/04/30 11:19:24;;;;;;;;;;;;;;;17.77;64.88;100823.66;4976390;28;1056;-54
2021/04/30 11:21:51;;;;;;;;;;;;;;;17.79;64.38;100832.38;4976427;28;1123;-55
2021/04/30 11:24:34;;;;;;;;;;;;;;;17.82;64.72;100834.78;4976688;28;1019;-55
2021/04/30 11:27:24;;;;;;;;;;;;;;;17.79;64.62;100837.75;4976263;28;1051;-54
2021/04/30 11:29:52;;;;;;;;;;;;;;;17.81;64.17;100836.63;4975779;28;1663;-55
2021/04/30 11:32:20;;;;;;;;;;;;;;;17.79;64.21;100830.56;4976522;28;1043;-55
2021/04/30 11:34:50;;;;;;;;;;;;;;;17.79;64.61;100811.84;4976135;28;1918;-55
2021/04/30 11:37:16;;;;;;;;;;;;;;;17.83;64.48;100821.34;4976139;28;1056;-55
2021/04/30 11:39:42;;;;;;;;;;;;;;;17.79;64.78;100814.50;4976069;28;1035;-55
2021/04/30 11:42:10;;;;;;;;;;;;;;;17.78;64.88;100815.47;4976378;28;988;-54
2021/04/30 11:44:37;;;;;;;;;;;;;;;17.79;64.40;100805.63;4976221;28;1867;-55
2021/04/30 11:47:04;;;;;;;;;;;;;;;17.80;64.08;100796.63;4976330;28;976;-55
2021/04/30 11:49:31;;;;;;;;;;;;;;;17.82;64.89;100792.84;4976310;28;1061;-55
2021/04/30 11:51:57;;;;;;;;;;;;;;;17.78;64.46;100786.03;4976332;28;976;-54
2021/04/30 11:54:28;;;;;;;;;;;;;;;17.81;64.36;100798.34;4975827;28;1910;-55
2021/04/30 11:57:01;;;;;;;;;;;;;;;17.83;64.42;100791.91;4975860;28;1015;-54
2021/04/30 11:59:27;;;;;;;;;;;;;;;17.83;64.63;100789.22;4976190;28;999;-55
2021/04/30 12:01:54;;;;;;;;;;;;;;;17.84;64.04;100782.06;4975801;28;1380;-55
2021/04/30 12:04:39;;;;;;;;;;;;;;;17.83;64.58;100778.53;4976156;28;983;-55
2021/04/30 12:07:06;;;;;;;;;;;;;;;17.80;64.80;100773.38;4975681;28;1210;-55
2021/04/30 12:09:32;;;;;;;;;;;;;;;17.83;64.40;100783.88;4976010;28;1004;-55
2021/04/30 12:12:09;;;;;;;;;;;;;;;17.85;64.55;100776.56;4975740;28;1092;-55
2021/04/30 12:14:42;;;;;;;;;;;;;;;17.83;64.40;100766.97;4975799;28;1890;-55
2021/04/30 12:17:08;;;;;;;;;;;;;;;17.84;64.69;100760.66;4979585;28;1055;-55
2021/04/30 12:19:34;;;;;;;;;;;;;;;17.84;64.88;100764.16;4980030;28;987;-55
2021/04/30 12:22:00;;;;;;;;;;;;;;;17.83;64.93;100749.09;4979870;28;980;-55
2021/04/30 12:24:27;;;;;;;;;;;;;;;17.83;64.60;100751.78;4979650;28;1059;-55
2021/04/30 12:26:53;;;;;;;;;;;;;;;17.85;64.68;100749.00;4979802;28;1046;-55
2021/04/30 12:29:19;;;;;;;;;;;;;;;17.84;64.97;100741.94;4979475;28;1111;-55
2021/04/30 12:31:47;;;;;;;;;;;;;;;17.83;64.41;100741.09;4979789;28;1075;-55
2021/04/30 12:34:13;;;;;;;;;;;;;;;17.81;64.45;100743.00;4979581;28;1903;-55
2021/04/30 12:36:41;;;;;;;;;;;;;;;17.84;64.91;100742.75;4979596;28;1867;-55
2021/04/30 12:39:10;;;;;;;;;;;;;;;17.86;64.96;100746.16;4979600;28;1055;-55
2021/04/30 12:41:39;;;;;;;;;;;;;;;17.84;64.61;100742.75;4979546;28;1069;-54
2021/04/30 12:44:07;;;;;;;;;;;;;;;17.84;64.29;100740.09;4979313;28;1127;-54
2021/04/30 12:46:34;;;;;;;;;;;;;;;17.83;64.88;100725.03;4979251;28;1060;-56
2021/04/30 12:49:05;;;;;;;;;;;;;;;17.84;64.57;100724.03;4979369;28;1011;-55
2021/04/30 12:51:32;;;;;;;;;;;;;;;17.81;64.52;100716.25;4979197;28;1053;-55